Terminal Aerodrome Forecast
Issued by NWS Detroit/Pontiac, MI

Home | Current Version | Previous Version | Text Only | Print | Product List | Glossary On
Versions: 1 2 3 4 5 6 7 8 9 10 11 12 13 14 15 16 17 18 19
691
FTUS43 KDTX 200007 CCA
TAFFNT
TAF COR
KFNT 200007Z 2000/2024 19005KT 3SM -SHRA BR OVC004 WS015/23040KT
     FM200800 22013KT 5SM RA BR OVC006=

USA.gov is the U.S. government's official web portal to all federal, state and local government web resources and services.